In Rescue
 
Open Full Screen Window  High Contrast Mode
Wind Gusting 20 knots
12
October 25, 2021 4:27 PM EDT
Weather Information
Wind Direction
  040 °
Wind Speed
  12 kt (14 mph)
Wind Gust
  20 kt (23 mph)
Variable Wind
020°
080°
Altimeter
29.92 in
Visibility
10 SM
Temperature
09° C
48° F
Dewpoint
03° C
37° F
Humidity
66%
1hr Rain Fall
00.00 in.
24hr Rain Fall
00.00 in.
Sky Condition
Overcast @ 2,800 ft
MVFR

METAR KRQB 252027Z AUTO 04012G20KT 020V080 10SM OVC028 09/03 A2992 RMK AO2 T00880030

FAA Disclaimer: The data displayed is for advisory purposes only and is not to be used for flight planning or operations.